Impacts TAF Board
For situational awareness. Not to be used for flight planning purposes.
IDs:

KJFK - New York/Kennedy Int, NY, US

Issued at 0219 UTC 16 Oct 2018
Updated at 0240 UTC 16 Oct 2018
Potential Impact None Slight Moderate High
Time0151Z 16/03Z 16/04Z 16/05Z 16/06Z 16/07Z 16/08Z 16/09Z 16/10Z 16/11Z 16/12Z 16/13Z 16/14Z 16/15Z>>
Type OBS PRVL
  [TEMP]  
PRVL
  [TEMP]  
PRVL
  [TEMP]  
PRVL PRVL PRVL PRVL PRVL PRVL PRVL PRVL PRVL PRVL
VIS 10 >6
  [3]  
>6
  [3]  
>6
  [3]  
>6 >6 >6 >6 >6 >6 >6 >6 >6 >6
CIG 65 25
  [25]  
25
  [25]  
25
  [25]  
90 90 90 -- -- -- -- -- -- --
Cover OVC BKN
  [BKN]  
BKN
  [BKN]  
BKN
  [BKN]  
BKN BKN BKN SCT SCT SCT FEW FEW FEW FEW
FltCat VFR MVFR
  [MVFR]  
MVFR
  [MVFR]  
MVFR
  [MVFR]  
VFR VFR VFR VFR VFR VFR VFR VFR VFR VFR
WX -- --
  [-SHRA]  
--
  [-SHRA]  
--
  [-SHRA]  
-- -- -- -- -- -- -- -- -- --
WDir 220 240
[260]
240
[260]
240
[260]
300 300 300 310 310 310 320 320 320 320
WSpd 14 19
  [26]  
19
  [26]  
19
  [26]  
20 20 20 16 16 16 13 13 13 13
WGst -- 27
  [35]  
27
  [35]  
27
  [35]  
32 32 32 24 24 24 20 20 20 20
Raw TAF
KJFK 160219Z 1602/1706 24019G27KT P6SM BKN025 BKN050 BKN100 WS020/24050KT
  TEMPO 1603/1606 26026G35KT 3SM -SHRA
  FM160600 30020G32KT P6SM FEW035 BKN090
  FM160900 31016G24KT P6SM FEW035 SCT120 SCT250
  FM161200 32013G20KT P6SM FEW035
  FM161600 28010KT P6SM FEW035
  FM161800 24010KT P6SM FEW035
  FM162000 22012KT P6SM FEW035


Raw METAR
KJFK 160151Z 22014KT 10SM FEW015 BKN065 BKN140 OVC250 20/19 A2988 RMK AO2 SLP116 T02000189 $
KJFK 160051Z 22018KT 10SM FEW015 BKN085 BKN120 BKN150 BKN210 20/18 A2988 RMK AO2 RAB2353E28 SLP118 P0001 T02000183 $
KJFK 152351Z 22015KT 10SM SCT015 BKN050 BKN120 OVC170 19/19 A2990 RMK AO2 SLP125 T01940189 10194 20183 56017 $
KJFK 152341Z 22012KT 10SM SCT015 BKN050 BKN120 OVC170 19/19 A2990 RMK AO2 T01940189 $

METAR Board
Radar Display
Forecast Discussion
For situational awareness. Not to be used for flight planning purposes.